Time;durP1;ratioP1;P1;durP2;ratioP2;P2;SDS_P1;SDS_P2;PMS_P1;PMS_P2;Temp;Humidity;BMP_temperature;BMP_pressure;BME280_temperature;BME280_humidity;BME280_pressure;Samples;Min_cycle;Max_cycle;Signal;HPM_P1;HPM_P2
2022/03/22 00:01:53;;;;;;;16.60;12.60;;;7.70;99.90;;;;;;5075922;28;20230;-67
2022/03/22 00:04:20;;;;;;;25.10;13.05;;;7.70;99.90;;;;;;5075546;28;20297;-67
2022/03/22 00:06:47;;;;;;;17.27;13.25;;;7.70;99.90;;;;;;5075340;28;20231;-66
2022/03/22 00:09:13;;;;;;;19.42;12.88;;;7.70;99.90;;;;;;5075363;28;20224;-67
2022/03/22 00:11:40;;;;;;;20.55;13.20;;;7.60;99.90;;;;;;5075081;28;20206;-67
2022/03/22 00:14:08;;;;;;;17.45;11.93;;;7.60;99.90;;;;;;5075011;28;20207;-68
2022/03/22 00:16:36;;;;;;;14.63;12.00;;;7.50;99.90;;;;;;5075287;28;20584;-66
2022/03/22 00:19:02;;;;;;;15.05;12.43;;;7.50;99.90;;;;;;5075670;28;20207;-66
2022/03/22 00:21:29;;;;;;;18.90;11.85;;;7.40;99.90;;;;;;5075385;28;20576;-66
2022/03/22 00:23:55;;;;;;;16.10;11.70;;;7.40;99.90;;;;;;5075567;28;20254;-66
2022/03/22 00:26:22;;;;;;;15.45;13.00;;;7.30;99.90;;;;;;5073601;28;20686;-66
2022/03/22 00:28:48;;;;;;;16.20;13.45;;;7.30;99.90;;;;;;5074981;28;20231;-67
2022/03/22 00:31:15;;;;;;;16.10;12.45;;;7.30;99.90;;;;;;5075057;28;20200;-66
2022/03/22 00:33:41;;;;;;;17.95;12.48;;;7.30;99.90;;;;;;5075286;28;20245;-66
2022/03/22 00:36:08;;;;;;;16.88;12.60;;;7.20;99.90;;;;;;5074798;28;20257;-66
2022/03/22 00:38:34;;;;;;;16.90;12.88;;;7.30;99.90;;;;;;5074837;28;20204;-67
2022/03/22 00:41:01;;;;;;;15.65;11.48;;;7.30;99.90;;;;;;5074884;28;20207;-66
2022/03/22 00:43:27;;;;;;;18.67;12.32;;;7.30;99.90;;;;;;5074669;28;20200;-67
2022/03/22 00:45:55;;;;;;;15.23;11.95;;;7.30;99.90;;;;;;5074750;28;20273;-66
2022/03/22 00:48:21;;;;;;;18.27;12.20;;;7.20;99.90;;;;;;5072451;28;20269;-66
2022/03/22 00:50:48;;;;;;;17.10;12.00;;;7.10;99.90;;;;;;5073957;28;20203;-66
2022/03/22 00:53:18;;;;;;;18.17;12.73;;;7.00;99.90;;;;;;5074270;28;20708;-66
2022/03/22 00:55:47;;;;;;;14.40;12.45;;;6.90;99.90;;;;;;5074602;28;20189;-66
2022/03/22 00:58:13;;;;;;;17.55;12.30;;;6.90;99.90;;;;;;5074561;28;20265;-66
2022/03/22 01:00:41;;;;;;;34.22;12.65;;;6.80;99.90;;;;;;5074366;28;20212;-68
2022/03/22 01:03:09;;;;;;;15.20;12.25;;;6.70;99.90;;;;;;5074095;28;20240;-67
2022/03/22 01:05:37;;;;;;;14.00;12.02;;;6.70;99.90;;;;;;5073840;28;20247;-66
2022/03/22 01:08:10;;;;;;;15.77;12.85;;;6.70;99.90;;;;;;5074266;28;20557;-66
2022/03/22 01:10:41;;;;;;;15.88;11.27;;;6.60;99.90;;;;;;5073841;28;20180;-66
2022/03/22 01:13:08;;;;;;;14.57;11.55;;;6.60;99.90;;;;;;5074091;28;20210;-67
2022/03/22 01:15:36;;;;;;;17.17;11.05;;;6.60;99.90;;;;;;5073872;28;20249;-66
2022/03/22 01:18:05;;;;;;;13.95;10.90;;;6.60;99.90;;;;;;5073782;28;20655;-67
2022/03/22 01:20:33;;;;;;;14.00;10.93;;;6.70;99.90;;;;;;5073879;28;20268;-67
2022/03/22 01:23:02;;;;;;;15.30;11.60;;;6.70;99.90;;;;;;5073663;28;20196;-66
2022/03/22 01:25:30;;;;;;;12.85;10.50;;;6.70;99.90;;;;;;5074130;28;20203;-66
2022/03/22 01:27:57;;;;;;;13.48;10.98;;;6.80;99.90;;;;;;5073688;28;20204;-66
2022/03/22 01:30:24;;;;;;;15.15;11.68;;;6.90;99.90;;;;;;5073791;28;20195;-66
2022/03/22 01:32:52;;;;;;;18.00;12.05;;;7.00;99.90;;;;;;5074229;28;20211;-67
2022/03/22 01:35:20;;;;;;;18.13;11.35;;;7.10;99.90;;;;;;5074081;28;20204;-67
2022/03/22 01:37:48;;;;;;;16.77;11.07;;;7.10;99.90;;;;;;5073345;28;20203;-67
2022/03/22 01:40:16;;;;;;;18.52;12.32;;;7.10;99.90;;;;;;5074060;28;20204;-66
2022/03/22 01:42:43;;;;;;;15.13;11.20;;;7.10;99.90;;;;;;5073651;28;20268;-67
2022/03/22 01:45:10;;;;;;;13.05;11.27;;;7.00;99.90;;;;;;5073314;28;20208;-67
2022/03/22 01:47:38;;;;;;;14.88;11.70;;;6.90;99.90;;;;;;5073542;28;20208;-66
2022/03/22 01:50:08;;;;;;;16.38;12.00;;;6.90;99.90;;;;;;5073613;28;20230;-67
2022/03/22 01:52:36;;;;;;;17.08;12.23;;;6.90;99.90;;;;;;5073353;28;20192;-67
2022/03/22 01:55:03;;;;;;;16.02;10.77;;;6.90;99.90;;;;;;5073518;28;20284;-67
2022/03/22 01:57:32;;;;;;;13.63;11.30;;;6.90;99.90;;;;;;5073344;28;20200;-67
2022/03/22 01:59:59;;;;;;;16.17;12.20;;;6.80;99.90;;;;;;5076497;28;20203;-66
2022/03/22 02:08:01;;;;;;;15.88;11.20;;;6.50;99.90;;;;;;5077628;28;20188;-66
2022/03/22 02:10:28;;;;;;;16.00;11.45;;;6.40;99.90;;;;;;5077485;28;20223;-66
2022/03/22 02:12:54;;;;;;;16.17;11.35;;;6.30;99.90;;;;;;5077506;28;20206;-67
2022/03/22 02:15:21;;;;;;;17.50;12.77;;;6.30;99.90;;;;;;5077025;28;20659;-67
2022/03/22 02:17:47;;;;;;;17.00;12.32;;;6.30;99.90;;;;;;5075921;28;20205;-67
2022/03/22 02:20:14;;;;;;;15.02;12.40;;;6.30;99.90;;;;;;5077364;28;20237;-67
2022/03/22 02:22:58;;;;;;;18.40;12.52;;;6.30;99.90;;;;;;5077492;28;20257;-67
2022/03/22 02:25:24;;;;;;;13.57;11.98;;;6.20;99.90;;;;;;5076978;28;20192;-67
2022/03/22 02:27:54;;;;;;;18.40;12.20;;;6.10;99.90;;;;;;5077017;28;20211;-66
2022/03/22 02:30:22;;;;;;;14.23;12.23;;;6.10;99.90;;;;;;5077182;28;20288;-67
2022/03/22 02:32:54;;;;;;;21.42;13.48;;;6.10;99.90;;;;;;5077002;28;20203;-67
2022/03/22 02:35:21;;;;;;;18.70;13.65;;;6.10;99.90;;;;;;5076572;28;20199;-67
2022/03/22 02:37:48;;;;;;;18.45;14.40;;;6.00;99.90;;;;;;5077124;28;20210;-67
2022/03/22 02:40:16;;;;;;;16.40;12.30;;;6.00;99.90;;;;;;5076721;28;20265;-66
2022/03/22 02:42:53;;;;;;;18.17;13.80;;;6.00;99.90;;;;;;5076800;28;20212;-66
2022/03/22 02:45:22;;;;;;;16.42;13.32;;;5.90;99.90;;;;;;5077158;28;20595;-66
2022/03/22 02:47:48;;;;;;;18.70;13.60;;;5.90;99.90;;;;;;5077366;28;20666;-67
2022/03/22 02:50:15;;;;;;;23.50;13.82;;;5.90;99.90;;;;;;5076643;28;20216;-67
2022/03/22 02:52:42;;;;;;;20.75;14.27;;;5.90;99.90;;;;;;5076856;28;20214;-67
2022/03/22 02:55:10;;;;;;;16.42;13.20;;;5.90;99.90;;;;;;5076794;28;20576;-67
2022/03/22 02:57:38;;;;;;;20.73;13.45;;;5.80;99.90;;;;;;5076473;28;20214;-66
2022/03/22 03:00:07;;;;;;;19.77;13.20;;;5.70;99.90;;;;;;5076468;28;20224;-66
2022/03/22 03:02:44;;;;;;;20.52;14.57;;;5.70;99.90;;;;;;5076515;28;20216;-66
2022/03/22 03:05:10;;;;;;;21.00;14.20;;;5.60;99.90;;;;;;5076583;28;20609;-66
2022/03/22 03:07:37;;;;;;;21.92;14.07;;;5.60;99.90;;;;;;5076764;28;20674;-66
2022/03/22 03:10:05;;;;;;;18.00;13.63;;;5.50;99.90;;;;;;5075671;28;20690;-66
2022/03/22 03:12:32;;;;;;;18.92;14.07;;;5.50;99.90;;;;;;5076329;28;20207;-66
2022/03/22 03:14:58;;;;;;;24.90;13.88;;;5.40;99.90;;;;;;5076612;28;20234;-66
2022/03/22 03:17:25;;;;;;;18.80;12.52;;;5.30;99.90;;;;;;5076239;28;20196;-66
2022/03/22 03:19:52;;;;;;;17.50;13.20;;;5.20;99.90;;;;;;5076062;28;20211;-66
2022/03/22 03:22:19;;;;;;;18.92;14.25;;;5.20;99.90;;;;;;5075739;28;20253;-66
2022/03/22 03:24:45;;;;;;;23.88;15.75;;;5.20;99.90;;;;;;5075736;28;20208;-66
2022/03/22 03:27:12;;;;;;;22.15;12.68;;;5.10;99.90;;;;;;5076097;28;20621;-66
2022/03/22 03:29:38;;;;;;;21.73;13.75;;;5.10;99.90;;;;;;5075714;28;20220;-66
2022/03/22 03:32:05;;;;;;;25.30;17.90;;;5.00;99.90;;;;;;5076172;28;20612;-66
2022/03/22 03:34:31;;;;;;;21.67;16.20;;;5.00;99.90;;;;;;5076243;28;20196;-66
2022/03/22 03:36:58;;;;;;;19.70;14.50;;;5.00;99.90;;;;;;5075826;28;20203;-67
2022/03/22 03:39:24;;;;;;;26.52;15.18;;;4.90;1.00;;;;;;5075529;28;20269;-66
2022/03/22 03:41:53;;;;;;;21.52;14.55;;;4.90;1.00;;;;;;5076014;28;20203;-66
2022/03/22 03:47:17;;;;;;;22.00;13.10;;;4.80;1.00;;;;;;5075626;28;20663;-66
2022/03/22 03:49:48;;;;;;;19.75;12.75;;;4.70;1.00;;;;;;5075763;28;20695;-66
2022/03/22 03:52:18;;;;;;;17.10;13.27;;;4.70;1.00;;;;;;5074372;28;20206;-66
2022/03/22 03:54:45;;;;;;;19.73;12.70;;;4.60;1.00;;;;;;5075272;28;20204;-67
2022/03/22 03:57:12;;;;;;;17.33;13.20;;;4.70;1.00;;;;;;5075812;28;20544;-65
2022/03/22 03:59:40;;;;;;;18.10;12.90;;;4.70;99.90;;;;;;5075005;28;20219;-66
2022/03/22 04:02:07;;;;;;;19.92;15.77;;;4.50;99.90;;;;;;5075828;28;20268;-67
2022/03/22 04:04:38;;;;;;;23.85;15.10;;;4.40;1.00;;;;;;5075195;28;20238;-66
2022/03/22 04:07:06;;;;;;;18.55;14.68;;;4.30;1.00;;;;;;5075104;28;20228;-67
2022/03/22 04:09:34;;;;;;;20.73;14.77;;;4.30;1.00;;;;;;5074863;28;20326;-66
2022/03/22 04:12:01;;;;;;;23.05;14.43;;;4.20;1.00;;;;;;5075343;28;20204;-67
2022/03/22 04:14:27;;;;;;;19.15;15.55;;;4.10;1.00;;;;;;5074650;28;20206;-65
2022/03/22 04:16:56;;;;;;;19.88;15.45;;;4.00;1.00;;;;;;5074950;28;20199;-66
2022/03/22 04:19:24;;;;;;;22.25;14.60;;;4.00;1.00;;;;;;5074438;28;20702;-66
2022/03/22 04:21:50;;;;;;;20.08;15.13;;;3.90;99.90;;;;;;5073999;28;20265;-66
2022/03/22 04:24:18;;;;;;;21.40;14.48;;;3.90;1.00;;;;;;5074789;28;20684;-67
2022/03/22 04:26:45;;;;;;;26.45;16.05;;;3.90;1.00;;;;;;5075148;28;20208;-66
2022/03/22 04:34:46;;;;;;;23.15;15.60;;;3.90;1.00;;;;;;5074801;28;20196;-66
2022/03/22 04:37:14;;;;;;;22.52;15.27;;;3.80;1.00;;;;;;5075043;28;20200;-65
2022/03/22 04:39:45;;;;;;;22.27;14.82;;;3.80;1.00;;;;;;5074790;28;20241;-65
2022/03/22 04:42:16;;;;;;;21.75;16.05;;;3.80;1.00;;;;;;5075159;28;20636;-67
2022/03/22 04:44:43;;;;;;;24.55;14.95;;;3.70;1.00;;;;;;5074291;28;20686;-65
2022/03/22 04:47:10;;;;;;;28.05;17.05;;;3.70;1.00;;;;;;5074242;28;20208;-65
2022/03/22 04:49:36;;;;;;;20.48;15.13;;;3.70;1.00;;;;;;5074389;28;20304;-66
2022/03/22 04:57:33;;;;;;;27.05;15.82;;;3.70;1.00;;;;;;5074262;28;20184;-66
2022/03/22 04:59:59;;;;;;;28.83;17.27;;;3.60;1.00;;;;;;5074480;28;20199;-65
2022/03/22 05:02:26;;;;;;;23.23;15.95;;;3.60;1.00;;;;;;5074318;28;20250;-66
2022/03/22 05:04:52;;;;;;;21.60;15.68;;;3.60;1.00;;;;;;5073543;28;20634;-65
2022/03/22 05:07:18;;;;;;;18.42;14.60;;;3.60;1.00;;;;;;5073982;28;20579;-65
2022/03/22 05:09:46;;;;;;;22.25;16.40;;;3.50;1.00;;;;;;5073909;28;20216;-66
2022/03/22 05:12:15;;;;;;;21.08;14.90;;;3.40;1.00;;;;;;5074332;28;20606;-66
2022/03/22 05:14:42;;;;;;;25.42;16.85;;;3.30;1.00;;;;;;5074119;28;20211;-65
2022/03/22 05:17:11;;;;;;;17.52;14.70;;;3.30;1.00;;;;;;5073983;28;20667;-65
2022/03/22 05:19:39;;;;;;;22.08;14.50;;;3.20;1.00;;;;;;5073881;28;20219;-66
2022/03/22 05:22:06;;;;;;;21.77;13.93;;;3.10;15.20;;;;;;5072813;28;20218;-65
2022/03/22 05:24:33;;;;;;;19.25;14.85;;;3.00;99.90;;;;;;5073897;28;20208;-65
2022/03/22 05:27:00;;;;;;;22.95;17.50;;;2.90;99.90;;;;;;5072516;28;20200;-65
2022/03/22 05:29:27;;;;;;;22.08;14.68;;;2.80;1.00;;;;;;5073886;28;20223;-65
2022/03/22 05:31:53;;;;;;;29.33;15.55;;;2.60;1.00;;;;;;5073557;28;20655;-65
2022/03/22 05:34:19;;;;;;;25.20;15.63;;;2.70;1.00;;;;;;5073762;28;20208;-65
2022/03/22 05:36:46;;;;;;;24.48;15.07;;;2.80;99.90;;;;;;5073528;28;20200;-65
2022/03/22 05:39:12;;;;;;;27.08;18.05;;;2.80;99.90;;;;;;5073414;28;20690;-66
2022/03/22 05:41:39;;;;;;;28.05;17.02;;;2.70;99.90;;;;;;5073722;28;20607;-65
2022/03/22 05:44:06;;;;;;;18.70;14.20;;;2.70;99.90;;;;;;5073625;28;20207;-66
2022/03/22 05:46:34;;;;;;;22.42;15.90;;;2.60;99.90;;;;;;5073200;28;20667;-65
2022/03/22 05:49:00;;;;;;;23.85;16.50;;;2.70;99.90;;;;;;5073389;28;20685;-66
2022/03/22 05:51:26;;;;;;;25.55;16.30;;;2.70;99.90;;;;;;5073777;28;20200;-68
2022/03/22 05:53:53;;;;;;;29.83;20.00;;;2.80;99.90;;;;;;5073630;28;20215;-67
2022/03/22 05:56:19;;;;;;;20.48;16.17;;;2.90;99.90;;;;;;5073434;28;20667;-66
2022/03/22 05:58:46;;;;;;;19.13;14.15;;;2.90;99.90;;;;;;5073604;28;20212;-67
2022/03/22 06:01:12;;;;;;;24.90;15.95;;;2.80;99.90;;;;;;5073602;28;20203;-66
2022/03/22 06:03:38;;;;;;;28.42;15.40;;;2.70;99.90;;;;;;5073569;28;20238;-66
2022/03/22 06:06:05;;;;;;;23.58;17.05;;;2.70;99.90;;;;;;5073616;28;20282;-66
2022/03/22 06:08:32;;;;;;;21.65;14.65;;;2.90;99.90;;;;;;5073508;28;20200;-66
2022/03/22 06:10:58;;;;;;;23.60;15.63;;;3.00;99.90;;;;;;5073039;28;20695;-66
2022/03/22 06:13:25;;;;;;;37.75;15.63;;;3.20;99.90;;;;;;5073514;28;20200;-66
2022/03/22 06:15:52;;;;;;;19.95;14.23;;;3.40;99.90;;;;;;5073228;28;20736;-66
2022/03/22 06:18:18;;;;;;;21.05;14.85;;;3.50;99.90;;;;;;5072459;28;20196;-66
2022/03/22 06:20:45;;;;;;;31.58;14.35;;;3.70;99.90;;;;;;5073421;28;20204;-66
2022/03/22 06:23:13;;;;;;;21.67;14.35;;;3.70;99.90;;;;;;5073191;28;20546;-66
2022/03/22 06:25:40;;;;;;;20.80;14.23;;;3.80;99.90;;;;;;5073125;28;20204;-66
2022/03/22 06:28:09;;;;;;;21.55;14.23;;;3.90;99.90;;;;;;5073289;28;20208;-65
2022/03/22 06:30:36;;;;;;;24.20;15.52;;;4.00;99.90;;;;;;5072917;28;20628;-65
2022/03/22 06:33:10;;;;;;;19.92;13.77;;;4.10;99.90;;;;;;5073236;28;20204;-65
2022/03/22 06:35:37;;;;;;;21.90;14.52;;;4.20;99.90;;;;;;5072077;28;20206;-66
2022/03/22 06:38:04;;;;;;;27.08;15.38;;;4.30;99.90;;;;;;5073306;28;20207;-66
2022/03/22 06:40:34;;;;;;;22.10;16.17;;;4.40;99.90;;;;;;5073435;28;20208;-65
2022/03/22 06:43:02;;;;;;;25.75;17.27;;;4.60;99.90;;;;;;5073710;28;20207;-65
2022/03/22 06:45:29;;;;;;;25.95;16.42;;;4.70;99.90;;;;;;5076278;28;20205;-66
2022/03/22 06:47:55;;;;;;;24.52;17.33;;;4.90;99.90;;;;;;5077812;28;20732;-65
2022/03/22 06:50:24;;;;;;;22.55;15.55;;;5.10;99.90;;;;;;5076917;28;20268;-66
2022/03/22 06:52:51;;;;;;;25.45;17.45;;;5.20;99.90;;;;;;5075672;28;21133;-66
2022/03/22 06:55:22;;;;;;;20.30;15.95;;;5.40;99.90;;;;;;5076918;28;20204;-66
2022/03/22 06:57:53;;;;;;;24.85;16.10;;;5.50;99.90;;;;;;5077461;28;20196;-66
2022/03/22 07:00:20;;;;;;;22.63;15.43;;;5.60;99.90;;;;;;5077011;28;20203;-66
2022/03/22 07:02:48;;;;;;;21.13;15.90;;;5.70;99.90;;;;;;5077034;28;20204;-66
2022/03/22 07:05:16;;;;;;;22.05;15.68;;;5.70;99.90;;;;;;5076432;28;20561;-66
2022/03/22 07:07:43;;;;;;;21.38;14.02;;;5.80;99.90;;;;;;5075718;28;20675;-66
2022/03/22 07:10:15;;;;;;;23.20;15.45;;;5.90;99.90;;;;;;5076455;28;20361;-66
2022/03/22 07:13:08;;;;;;;24.65;15.88;;;6.00;99.90;;;;;;5076206;28;20245;-66
2022/03/22 07:15:37;;;;;;;21.73;15.88;;;6.20;99.90;;;;;;5071776;28;20210;-65
2022/03/22 07:18:06;;;;;;;16.13;13.40;;;6.20;99.90;;;;;;5075137;28;20208;-66
2022/03/22 07:20:33;;;;;;;22.13;16.10;;;6.30;99.90;;;;;;5076260;28;20241;-68
2022/03/22 07:23:00;;;;;;;20.55;15.20;;;6.30;99.90;;;;;;5077216;28;20208;-68
2022/03/22 07:25:27;;;;;;;25.25;15.68;;;6.40;99.90;;;;;;5077581;28;20204;-69
2022/03/22 07:27:55;;;;;;;17.25;13.73;;;6.50;99.90;;;;;;5076699;28;20211;-67
2022/03/22 07:30:21;;;;;;;18.10;14.13;;;6.60;99.90;;;;;;5075668;28;20211;-67
2022/03/22 07:32:49;;;;;;;29.13;15.25;;;6.60;99.90;;;;;;5077636;28;20203;-67
2022/03/22 07:35:19;;;;;;;17.75;13.93;;;6.70;99.90;;;;;;5078061;28;20294;-67
2022/03/22 07:37:46;;;;;;;18.55;14.10;;;6.80;99.90;;;;;;5077857;28;20199;-68
2022/03/22 07:40:13;;;;;;;18.25;14.00;;;7.00;99.90;;;;;;5077170;28;20664;-68
2022/03/22 07:42:39;;;;;;;16.58;13.48;;;7.00;99.90;;;;;;5076087;28;20203;-68
2022/03/22 07:45:08;;;;;;;19.25;14.10;;;7.10;99.90;;;;;;5076212;28;20208;-68
2022/03/22 07:47:35;;;;;;;18.05;13.23;;;7.10;99.90;;;;;;5076177;28;20211;-67
2022/03/22 07:53:05;;;;;;;23.75;14.68;;;7.50;99.90;;;;;;5075896;28;20695;-68
2022/03/22 07:55:35;;;;;;;17.77;14.30;;;7.60;99.90;;;;;;5076939;28;20207;-68
2022/03/22 07:58:05;;;;;;;15.60;13.07;;;7.90;99.90;;;;;;5076564;28;20203;-68
2022/03/22 08:00:37;;;;;;;19.70;14.68;;;7.90;99.90;;;;;;5077395;28;20584;-68
2022/03/22 08:03:08;;;;;;;19.92;15.07;;;8.10;99.90;;;;;;5077704;28;20207;-68
2022/03/22 08:05:35;;;;;;;23.83;14.65;;;8.10;99.90;;;;;;5076783;28;20224;-69
2022/03/22 08:08:03;;;;;;;16.48;13.75;;;8.00;99.90;;;;;;5076748;28;20208;-68
2022/03/22 08:10:31;;;;;;;20.83;13.75;;;8.10;99.90;;;;;;5076586;28;20307;-69
2022/03/22 08:12:59;;;;;;;22.90;14.18;;;8.10;99.90;;;;;;5077041;28;20199;-68
2022/03/22 08:15:26;;;;;;;16.70;14.00;;;8.40;99.90;;;;;;5076372;28;20196;-69
2022/03/22 08:17:53;;;;;;;23.17;14.95;;;8.60;99.90;;;;;;5076351;28;20192;-68
2022/03/22 08:20:19;;;;;;;19.58;15.82;;;8.60;99.90;;;;;;5076215;28;20204;-68
2022/03/22 08:22:50;;;;;;;18.10;14.35;;;8.60;99.90;;;;;;5075654;28;20196;-69
2022/03/22 08:25:31;;;;;;;20.08;15.30;;;8.70;99.90;;;;;;5076064;28;20241;-69
2022/03/22 08:27:59;;;;;;;20.70;14.32;;;8.50;99.90;;;;;;5075272;28;20615;-68
2022/03/22 08:30:27;;;;;;;17.92;13.52;;;8.70;99.90;;;;;;5074790;28;20220;-68
2022/03/22 08:32:57;;;;;;;23.65;15.15;;;8.80;99.90;;;;;;5075272;28;20203;-68
2022/03/22 08:35:24;;;;;;;17.50;14.10;;;8.90;99.90;;;;;;5075407;28;20200;-68
2022/03/22 08:37:52;;;;;;;17.40;13.60;;;8.90;99.90;;;;;;5075269;28;20204;-68
2022/03/22 08:40:19;;;;;;;17.27;14.07;;;9.00;99.90;;;;;;5075362;28;20199;-68
2022/03/22 08:42:48;;;;;;;16.60;14.50;;;8.90;99.90;;;;;;5076383;28;20207;-68
2022/03/22 08:45:20;;;;;;;15.95;13.57;;;9.10;99.90;;;;;;5076176;28;20196;-69
2022/03/22 08:47:48;;;;;;;19.13;14.35;;;9.40;99.90;;;;;;5075708;28;20196;-68
2022/03/22 08:50:17;;;;;;;19.73;14.60;;;9.60;99.90;;;;;;5076267;28;20219;-68
2022/03/22 08:52:44;;;;;;;16.00;14.25;;;9.60;99.90;;;;;;5075860;28;20215;-68
2022/03/22 08:55:15;;;;;;;18.48;13.50;;;9.70;99.90;;;;;;5076354;28;20670;-69
2022/03/22 08:57:42;;;;;;;17.60;14.50;;;9.60;99.90;;;;;;5076561;28;20318;-69
2022/03/22 09:00:11;;;;;;;22.70;15.10;;;9.80;99.90;;;;;;5075783;28;20207;-68
2022/03/22 09:02:44;;;;;;;17.83;14.10;;;9.80;99.90;;;;;;5076280;28;20207;-68
2022/03/22 09:07:58;;;;;;;17.42;14.07;;;9.80;99.90;;;;;;5075446;28;20184;-69
2022/03/22 09:10:25;;;;;;;19.13;14.05;;;10.00;99.90;;;;;;5075148;28;20216;-69
2022/03/22 09:12:53;;;;;;;21.98;15.20;;;10.20;99.90;;;;;;5075488;28;20215;-69
2022/03/22 09:15:20;;;;;;;24.25;14.88;;;10.10;99.90;;;;;;5075376;28;20841;-69
2022/03/22 09:17:47;;;;;;;21.35;15.25;;;10.30;99.90;;;;;;5075519;28;20270;-69
2022/03/22 09:20:14;;;;;;;19.90;15.23;;;10.50;99.90;;;;;;5075167;28;20203;-69
2022/03/22 09:22:43;;;;;;;22.83;15.35;;;10.50;1.00;;;;;;5073464;28;20571;-69
2022/03/22 09:25:10;;;;;;;22.55;15.65;;;10.50;98.80;;;;;;5074186;28;20199;-69
2022/03/22 09:27:41;;;;;;;17.52;15.00;;;10.70;1.00;;;;;;5075680;28;20203;-67
2022/03/22 09:30:09;;;;;;;18.25;15.50;;;10.80;99.90;;;;;;5075228;28;20219;-66
2022/03/22 09:32:36;;;;;;;19.92;15.02;;;10.80;1.00;;;;;;5075828;28;20196;-67
2022/03/22 09:35:06;;;;;;;21.77;16.02;;;10.80;1.00;;;;;;5075648;28;20200;-68
2022/03/22 09:37:34;;;;;;;24.85;15.02;;;10.60;1.00;;;;;;5075011;28;20213;-68
2022/03/22 09:40:00;;;;;;;20.77;16.45;;;10.50;1.00;;;;;;5075083;28;20203;-69
2022/03/22 09:42:30;;;;;;;26.85;17.20;;;10.70;1.00;;;;;;5075717;28;20724;-69
2022/03/22 09:45:00;;;;;;;17.13;14.77;;;10.70;1.00;;;;;;5075181;28;20200;-69
2022/03/22 09:47:27;;;;;;;20.80;15.75;;;10.70;99.90;;;;;;5075535;28;20196;-68
2022/03/22 09:49:57;;;;;;;26.52;16.60;;;11.00;99.90;;;;;;5074689;28;20196;-68
2022/03/22 09:52:23;;;;;;;18.73;14.38;;;11.40;99.90;;;;;;5075195;28;20727;-69
2022/03/22 09:54:50;;;;;;;19.85;15.70;;;11.70;99.90;;;;;;5072686;28;20203;-68
2022/03/22 09:57:17;;;;;;;19.63;15.25;;;11.90;99.90;;;;;;5073367;28;20191;-69
2022/03/22 09:59:43;;;;;;;16.95;15.15;;;11.70;99.90;;;;;;5073162;28;20213;-70
2022/03/22 10:02:11;;;;;;;20.38;15.77;;;11.90;99.90;;;;;;5073672;28;20207;-69
2022/03/22 10:04:44;;;;;;;21.33;16.15;;;11.90;1.00;;;;;;5073828;28;20718;-69
2022/03/22 10:07:21;;;;;;;19.25;16.05;;;11.90;99.90;;;;;;5074025;28;20242;-69
2022/03/22 10:09:56;;;;;;;20.03;15.17;;;12.00;86.60;;;;;;5075391;28;20191;-69
2022/03/22 10:12:30;;;;;;;19.67;15.57;;;12.10;1.00;;;;;;5075503;28;20625;-68
2022/03/22 10:15:13;;;;;;;17.83;15.20;;;12.30;99.90;;;;;;5074939;28;20542;-69
2022/03/22 10:17:43;;;;;;;24.23;20.47;;;12.40;99.90;;;;;;5074839;28;20195;-69
2022/03/22 10:20:30;;;;;;;18.23;14.83;;;12.50;99.90;;;;;;5075868;28;20598;-69
2022/03/22 10:22:58;;;;;;;23.60;16.27;;;12.70;99.90;;;;;;5077145;28;20620;-69
2022/03/22 10:25:26;;;;;;;23.23;15.20;;;12.70;99.90;;;;;;5077423;28;20623;-69
2022/03/22 10:27:55;;;;;;;21.57;16.10;;;12.50;99.90;;;;;;5077397;28;20648;-69
2022/03/22 10:30:22;;;;;;;23.07;16.83;;;12.80;99.90;;;;;;5077424;28;21229;-69
2022/03/22 10:32:51;;;;;;;22.43;16.17;;;12.90;99.90;;;;;;5077426;28;21250;-69
2022/03/22 10:35:26;;;;;;;18.70;15.97;;;13.10;99.90;;;;;;5077309;28;20975;-69
2022/03/22 10:37:54;;;;;;;18.87;15.63;;;13.00;99.90;;;;;;5076726;28;20627;-69
2022/03/22 10:40:41;;;;;;;22.27;15.43;;;13.30;99.90;;;;;;5077072;28;20614;-69
2022/03/22 10:43:18;;;;;;;21.00;16.90;;;13.10;99.90;;;;;;5077115;28;20585;-70
2022/03/22 10:45:50;;;;;;;19.30;17.00;;;13.30;99.90;;;;;;5077450;28;20621;-69
2022/03/22 10:48:27;;;;;;;20.30;16.93;;;13.50;99.90;;;;;;5077343;28;20663;-68
2022/03/22 10:50:58;;;;;;;18.60;16.70;;;13.90;99.90;;;;;;5075938;28;20665;-68
2022/03/22 10:53:26;;;;;;;17.93;16.00;;;13.90;99.90;;;;;;5077288;28;20622;-68
2022/03/22 10:55:53;;;;;;;20.40;16.37;;;13.60;99.90;;;;;;5076809;28;21202;-68
2022/03/22 10:58:25;;;;;;;31.07;17.40;;;13.90;99.90;;;;;;5076573;28;20610;-68
2022/03/22 11:00:52;;;;;;;20.03;15.70;;;14.40;99.90;;;;;;5076045;28;20651;-68
2022/03/22 11:03:19;;;;;;;24.07;20.90;;;14.60;99.90;;;;;;5076760;28;20642;-68
2022/03/22 11:05:50;;;;;;;24.00;17.43;;;14.60;99.90;;;;;;5076565;28;20657;-68
2022/03/22 11:08:21;;;;;;;19.87;17.70;;;14.50;99.90;;;;;;5076928;28;20620;-68
2022/03/22 11:10:48;;;;;;;21.00;17.47;;;14.60;99.90;;;;;;5076086;28;21243;-68
2022/03/22 11:13:15;;;;;;;20.17;15.97;;;14.50;99.90;;;;;;5074884;28;20610;-68
2022/03/22 11:15:47;;;;;;;19.33;16.37;;;15.20;99.90;;;;;;5076046;28;20618;-68
2022/03/22 11:18:15;;;;;;;19.47;17.40;;;15.70;99.90;;;;;;5076249;28;20610;-69
2022/03/22 11:20:52;;;;;;;20.17;18.17;;;16.50;99.90;;;;;;5076248;28;20633;-68
2022/03/22 11:23:20;;;;;;;19.63;17.57;;;17.00;99.90;;;;;;5076052;28;20578;-68
2022/03/22 11:25:47;;;;;;;20.20;18.10;;;16.80;99.90;;;;;;5075911;28;20614;-68
2022/03/22 11:28:21;;;;;;;21.73;18.53;;;17.40;99.90;;;;;;5076053;28;21187;-68
2022/03/22 11:30:48;;;;;;;19.00;17.17;;;17.30;99.90;;;;;;5075817;28;20641;-68
2022/03/22 11:36:21;;;;;;;20.90;18.80;;;17.10;99.90;;;;;;5075695;28;21155;-69
2022/03/22 11:38:53;;;;;;;18.13;16.23;;;16.60;99.90;;;;;;5075867;28;20621;-68
2022/03/22 11:44:31;;;;;;;18.03;16.23;;;17.80;99.90;;;;;;5075854;28;20590;-70
2022/03/22 11:47:03;;;;;;;22.00;17.43;;;18.20;99.90;;;;;;5076229;28;20597;-69
2022/03/22 11:49:30;;;;;;;22.30;18.20;;;17.70;99.90;;;;;;5076130;28;20637;-70
2022/03/22 11:52:11;;;;;;;19.60;17.60;;;17.50;99.90;;;;;;5076334;28;21063;-70
2022/03/22 11:54:38;;;;;;;26.40;17.90;;;17.30;99.90;;;;;;5076555;28;20684;-70
2022/03/22 11:57:07;;;;;;;18.90;17.10;;;17.70;99.90;;;;;;5075224;28;20617;-70
2022/03/22 11:59:41;;;;;;;20.10;18.00;;;17.90;99.90;;;;;;5074750;28;20617;-69
2022/03/22 12:02:16;;;;;;;19.23;17.27;;;18.00;99.90;;;;;;5076483;28;20718;-69
2022/03/22 12:04:49;;;;;;;22.20;17.80;;;19.40;99.90;;;;;;5075173;28;20747;-70
2022/03/22 12:07:37;;;;;;;20.67;18.33;;;20.00;99.90;;;;;;5075607;28;20716;-69
2022/03/22 12:10:11;;;;;;;19.17;17.27;;;18.90;99.90;;;;;;5075396;28;20687;-69
2022/03/22 12:12:38;;;;;;;19.90;17.80;;;18.70;99.90;;;;;;5075045;28;20803;-70
2022/03/22 12:15:10;;;;;;;19.80;17.77;;;19.10;99.90;;;;;;5075379;28;20261;-69
2022/03/22 12:17:37;;;;;;;24.87;19.53;;;18.70;99.90;;;;;;5074406;28;20587;-69
2022/03/22 12:20:11;;;;;;;20.47;18.00;;;18.40;99.90;;;;;;5074820;28;21180;-69
2022/03/22 12:22:52;;;;;;;18.10;16.30;;;18.10;99.90;;;;;;5076087;28;20660;-70
2022/03/22 12:25:21;;;;;;;19.07;17.07;;;18.30;99.90;;;;;;5075150;28;20640;-69
2022/03/22 12:27:56;;;;;;;19.53;17.53;;;18.80;99.90;;;;;;5075236;28;20614;-69
2022/03/22 12:30:26;;;;;;;18.37;16.53;;;19.00;99.90;;;;;;5075255;28;20614;-69
2022/03/22 12:32:54;;;;;;;19.77;17.60;;;19.10;99.90;;;;;;5075116;28;20611;-70
2022/03/22 12:35:21;;;;;;;19.27;16.10;;;20.20;99.90;;;;;;5075935;28;20614;-70
2022/03/22 12:37:52;;;;;;;18.43;16.60;;;20.40;99.90;;;;;;5077158;28;20705;-68
2022/03/22 12:40:19;;;;;;;18.80;16.90;;;19.90;99.90;;;;;;5077011;28;20996;-69
2022/03/22 12:42:49;;;;;;;19.67;17.70;;;21.00;99.90;;;;;;5076504;28;20708;-68
2022/03/22 12:45:18;;;;;;;21.60;19.50;;;21.60;99.90;;;;;;5075398;28;20974;-69
2022/03/22 12:47:45;;;;;;;19.70;17.87;;;22.20;99.90;;;;;;5074335;28;20606;-70
2022/03/22 12:50:13;;;;;;;19.03;17.13;;;21.70;99.90;;;;;;5074702;28;20618;-70
2022/03/22 12:52:40;;;;;;;21.27;19.00;;;21.50;99.90;;;;;;5074920;28;20715;-70
2022/03/22 12:55:10;;;;;;;19.23;17.43;;;22.30;99.90;;;;;;5074411;28;20961;-70
2022/03/22 12:57:40;;;;;;;19.23;17.27;;;21.50;99.90;;;;;;5074574;28;20618;-70
2022/03/22 13:00:08;;;;;;;20.27;18.27;;;22.50;99.90;;;;;;5074572;28;20602;-71
2022/03/22 13:02:38;;;;;;;21.10;19.27;;;22.50;99.90;;;;;;5073797;28;21079;-71
2022/03/22 13:05:06;;;;;;;20.47;18.47;;;22.10;99.90;;;;;;5073630;28;20653;-71
2022/03/22 13:07:35;;;;;;;22.70;18.00;;;21.40;99.90;;;;;;5074149;28;20646;-70
2022/03/22 13:12:48;;;;;;;20.07;18.00;;;22.00;99.90;;;;;;5074398;28;20641;-70
2022/03/22 13:15:20;;;;;;;20.83;18.83;;;22.20;99.90;;;;;;5072694;28;20618;-71
2022/03/22 13:17:48;;;;;;;20.73;18.83;;;23.40;99.90;;;;;;5073777;28;20582;-70